createdAt,value
2023-03-26T00:01:33.669Z,85.86
2023-03-26T00:04:01.649Z,85.66
2023-03-26T00:06:32.727Z,86.02
2023-03-26T00:08:59.737Z,86.44
2023-03-26T00:11:29.454Z,86.45
2023-03-26T00:13:57.826Z,86.79
2023-03-26T00:16:28.943Z,86.54
2023-03-26T00:18:57.706Z,86.60
2023-03-26T00:21:27.759Z,86.28
2023-03-26T00:24:00.946Z,85.70
2023-03-26T00:26:31.175Z,85.69
2023-03-26T00:29:00.255Z,85.73
2023-03-26T00:31:27.824Z,86.08
2023-03-26T00:33:55.879Z,85.98
2023-03-26T00:36:25.838Z,85.66
2023-03-26T00:38:54.070Z,86.20
2023-03-26T00:41:26.140Z,86.15
2023-03-26T00:43:56.864Z,86.06
2023-03-26T00:46:25.974Z,86.22
2023-03-26T00:48:53.383Z,85.82
2023-03-26T00:51:21.367Z,86.26
2023-03-26T00:53:50.525Z,86.35
2023-03-26T00:56:18.648Z,86.50
2023-03-26T00:58:47.508Z,86.55
2023-03-26T01:01:18.842Z,85.98
2023-03-26T01:04:04.721Z,86.22
2023-03-26T01:06:37.746Z,86.24
2023-03-26T01:09:14.610Z,86.60
2023-03-26T01:11:42.283Z,86.29
2023-03-26T01:14:13.379Z,85.72
2023-03-26T01:16:52.275Z,85.48
2023-03-26T01:19:38.008Z,85.35
2023-03-26T01:22:09.633Z,85.16
2023-03-26T01:24:38.258Z,85.14
2023-03-26T01:27:10.267Z,84.96
2023-03-26T01:29:44.131Z,84.40
2023-03-26T01:32:24.760Z,84.55
2023-03-26T01:35:17.380Z,84.30
2023-03-26T01:38:18.536Z,84.78
2023-03-26T01:41:04.814Z,84.36
2023-03-26T01:44:02.708Z,84.48
2023-03-26T01:46:36.222Z,84.84
2023-03-26T01:49:06.018Z,84.90
2023-03-26T01:51:36.060Z,85.31
2023-03-26T01:54:07.487Z,85.42
2023-03-26T01:57:01.059Z,85.23
2023-03-26T01:59:56.253Z,86.12
2023-03-26T02:02:59.217Z,86.28
2023-03-26T02:05:51.259Z,86.62
2023-03-26T02:08:24.285Z,86.32
2023-03-26T02:10:58.219Z,86.19
2023-03-26T02:13:26.357Z,86.61
2023-03-26T02:15:58.896Z,86.50
2023-03-26T02:18:38.989Z,86.48
2023-03-26T02:21:12.371Z,85.70
2023-03-26T02:23:46.731Z,86.23
2023-03-26T02:26:17.485Z,86.72
2023-03-26T02:28:46.846Z,86.98
2023-03-26T02:31:17.120Z,86.96
2023-03-26T02:33:47.476Z,87.16
2023-03-26T02:36:16.080Z,87.03
2023-03-26T02:38:43.481Z,87.09
2023-03-26T02:41:11.560Z,87.54
2023-03-26T02:43:39.933Z,87.48
2023-03-26T02:46:08.631Z,87.80
2023-03-26T02:48:37.868Z,88.26
2023-03-26T02:51:06.708Z,88.45
2023-03-26T02:53:34.541Z,88.60
2023-03-26T02:56:06.171Z,88.81
2023-03-26T02:58:35.738Z,89.24
2023-03-26T03:01:03.439Z,89.66
2023-03-26T03:03:31.516Z,89.87
2023-03-26T03:06:00.511Z,90.14
2023-03-26T03:08:29.286Z,89.97
2023-03-26T03:10:59.553Z,89.97
2023-03-26T03:13:30.276Z,90.00
2023-03-26T03:15:57.767Z,90.29
2023-03-26T03:18:25.660Z,89.51
2023-03-26T03:20:54.006Z,88.97
2023-03-26T03:23:21.391Z,88.86
2023-03-26T03:25:52.602Z,88.15
2023-03-26T03:28:20.557Z,88.17
2023-03-26T03:30:48.907Z,88.37
2023-03-26T03:33:16.471Z,88.52
2023-03-26T03:35:45.970Z,89.18
2023-03-26T03:38:13.361Z,89.26
2023-03-26T03:40:41.464Z,89.62
2023-03-26T03:43:09.443Z,90.18
2023-03-26T03:45:37.591Z,89.66
2023-03-26T03:48:06.690Z,90.03
2023-03-26T03:50:35.924Z,90.17
2023-03-26T03:53:05.731Z,89.36
2023-03-26T03:55:34.067Z,89.38
2023-03-26T03:58:01.741Z,89.11
2023-03-26T04:00:30.673Z,88.98
2023-03-26T04:02:58.834Z,89.07
2023-03-26T04:05:26.792Z,89.05
2023-03-26T04:07:53.921Z,88.46
2023-03-26T04:10:23.753Z,88.36
2023-03-26T04:12:53.153Z,88.52
2023-03-26T04:15:21.101Z,88.55
2023-03-26T04:17:48.694Z,88.01
2023-03-26T04:20:16.506Z,87.04
2023-03-26T04:22:44.215Z,86.92
2023-03-26T04:25:13.628Z,86.19
2023-03-26T04:27:44.013Z,86.14
2023-03-26T04:30:17.168Z,86.18
2023-03-26T04:32:46.006Z,86.55
2023-03-26T04:35:16.670Z,86.49
2023-03-26T04:37:46.071Z,86.53
2023-03-26T04:40:20.503Z,86.76
2023-03-26T04:42:48.146Z,86.82
2023-03-26T04:45:22.606Z,86.84
2023-03-26T04:47:52.731Z,86.99
2023-03-26T04:50:20.131Z,86.93
2023-03-26T04:52:47.350Z,86.82
2023-03-26T04:55:24.843Z,86.69
2023-03-26T04:58:00.182Z,86.62
2023-03-26T05:00:28.435Z,85.96
2023-03-26T05:02:59.464Z,85.90
2023-03-26T05:05:29.103Z,85.20
2023-03-26T05:07:57.759Z,84.90
2023-03-26T05:10:25.315Z,82.41
2023-03-26T05:12:52.948Z,81.89
2023-03-26T05:15:20.770Z,81.21
2023-03-26T05:17:49.873Z,80.57
2023-03-26T05:20:24.035Z,79.33
2023-03-26T05:22:52.050Z,77.38
2023-03-26T05:25:19.814Z,76.70
2023-03-26T05:27:47.297Z,76.76
2023-03-26T05:30:18.031Z,75.94
2023-03-26T05:32:48.822Z,76.11
2023-03-26T05:35:17.714Z,75.86
2023-03-26T05:37:46.483Z,75.35
2023-03-26T05:40:16.945Z,75.67
2023-03-26T05:42:45.611Z,76.10
2023-03-26T05:45:16.155Z,76.69
2023-03-26T05:47:43.561Z,77.43
2023-03-26T05:50:11.498Z,77.53
2023-03-26T05:52:39.702Z,77.46
2023-03-26T05:55:08.358Z,76.89
2023-03-26T05:57:42.586Z,74.66
2023-03-26T06:00:16.656Z,72.03
2023-03-26T06:02:44.213Z,69.67
2023-03-26T06:05:12.688Z,65.27
2023-03-26T06:07:43.998Z,62.11
2023-03-26T06:10:17.832Z,57.56
2023-03-26T06:12:46.141Z,52.09
2023-03-26T06:15:13.701Z,50.44
2023-03-26T06:17:41.123Z,47.29
2023-03-26T06:20:11.298Z,47.03
2023-03-26T06:22:38.965Z,48.57
2023-03-26T06:25:08.004Z,49.54
2023-03-26T06:27:36.245Z,50.44
2023-03-26T06:30:04.591Z,50.46
2023-03-26T06:32:32.421Z,51.12
2023-03-26T06:34:59.958Z,50.92
2023-03-26T06:37:27.344Z,48.69
2023-03-26T06:39:55.512Z,49.49
2023-03-26T06:42:22.878Z,50.33
2023-03-26T06:45:10.673Z,51.36
2023-03-26T06:47:44.341Z,52.28
2023-03-26T06:50:14.110Z,52.23
2023-03-26T06:52:41.343Z,52.17
2023-03-26T06:55:10.433Z,53.90
2023-03-26T06:57:39.344Z,54.54
2023-03-26T07:00:09.717Z,55.75
2023-03-26T07:02:41.789Z,56.58
2023-03-26T07:05:23.691Z,58.60
2023-03-26T07:07:58.321Z,59.31
2023-03-26T07:10:42.490Z,59.95
2023-03-26T07:13:10.042Z,60.81
2023-03-26T07:15:38.424Z,58.43
2023-03-26T07:18:06.115Z,55.56
2023-03-26T07:20:34.869Z,54.18
2023-03-26T07:23:02.379Z,54.86
2023-03-26T07:25:30.417Z,53.42
2023-03-26T07:28:07.999Z,51.77
2023-03-26T07:30:59.617Z,48.60
2023-03-26T07:33:53.881Z,48.02
2023-03-26T07:36:26.117Z,49.30
2023-03-26T07:39:08.816Z,49.91
2023-03-26T07:41:41.656Z,52.03
2023-03-26T07:44:12.526Z,53.05
2023-03-26T07:46:41.447Z,54.42
2023-03-26T07:49:12.719Z,54.37
2023-03-26T07:51:40.589Z,56.04
2023-03-26T07:54:10.697Z,57.32
2023-03-26T07:56:40.076Z,58.27
2023-03-26T07:59:13.694Z,56.85
2023-03-26T08:02:00.033Z,56.86
2023-03-26T08:04:33.273Z,57.18
2023-03-26T08:07:15.644Z,56.31
2023-03-26T08:10:19.001Z,56.32
2023-03-26T08:13:39.148Z,55.03
2023-03-26T08:16:23.192Z,54.79
2023-03-26T08:19:07.884Z,54.29
2023-03-26T08:21:38.090Z,54.46
2023-03-26T08:24:23.791Z,55.79
2023-03-26T08:26:55.203Z,55.37
2023-03-26T08:29:41.257Z,53.39
2023-03-26T08:32:17.758Z,53.49
2023-03-26T08:34:46.214Z,52.84
2023-03-26T08:37:13.930Z,52.30
2023-03-26T08:39:42.510Z,51.30
2023-03-26T08:42:30.171Z,51.21
2023-03-26T08:45:22.595Z,51.65
2023-03-26T08:48:14.496Z,51.42
2023-03-26T08:51:01.537Z,50.88
2023-03-26T08:54:00.526Z,50.57
2023-03-26T08:56:59.543Z,50.96
2023-03-26T08:59:44.957Z,50.12
2023-03-26T09:02:41.175Z,50.52
2023-03-26T09:05:40.684Z,50.64
2023-03-26T09:08:26.478Z,51.27
2023-03-26T09:11:19.100Z,50.14
2023-03-26T09:13:49.210Z,49.43
2023-03-26T09:16:53.695Z,50.47
2023-03-26T09:19:35.580Z,51.49
2023-03-26T09:22:28.550Z,53.01
2023-03-26T09:25:06.953Z,52.17
2023-03-26T09:27:39.352Z,50.43
2023-03-26T09:30:19.125Z,50.60
2023-03-26T09:33:14.746Z,49.96
2023-03-26T09:35:53.498Z,49.68
2023-03-26T09:38:29.713Z,48.79
2023-03-26T09:41:27.265Z,49.94
2023-03-26T09:44:28.051Z,48.45
2023-03-26T09:46:55.649Z,47.38
2023-03-26T09:49:42.930Z,47.59
2023-03-26T09:52:50.371Z,48.01
2023-03-26T09:55:23.318Z,49.21
2023-03-26T09:58:08.111Z,51.95
2023-03-26T10:01:05.879Z,50.45
2023-03-26T10:03:51.945Z,49.94
2023-03-26T10:06:58.003Z,51.42
2023-03-26T10:09:25.679Z,54.07
2023-03-26T10:12:01.946Z,58.98
2023-03-26T10:14:41.233Z,65.02
2023-03-26T10:17:25.673Z,61.56
2023-03-26T10:20:04.898Z,61.46
2023-03-26T10:22:32.054Z,62.45
2023-03-26T10:25:29.916Z,65.29
2023-03-26T10:28:05.891Z,65.83
2023-03-26T10:30:33.356Z,65.75
2023-03-26T10:33:25.004Z,62.13
2023-03-26T10:35:55.381Z,62.66
2023-03-26T10:38:53.288Z,61.07
2023-03-26T10:41:42.664Z,56.91
2023-03-26T10:44:12.861Z,54.51
2023-03-26T10:47:01.898Z,56.91
2023-03-26T10:50:06.584Z,55.48
2023-03-26T10:52:51.772Z,55.21
2023-03-26T10:55:26.338Z,58.34
2023-03-26T10:58:01.069Z,55.47
2023-03-26T11:00:30.050Z,58.83
2023-03-26T11:03:20.908Z,59.74
2023-03-26T11:05:57.777Z,61.24
2023-03-26T11:08:36.206Z,58.69
2023-03-26T11:11:24.184Z,60.07
2023-03-26T11:14:07.020Z,60.81
2023-03-26T11:16:49.546Z,58.50
2023-03-26T11:19:20.222Z,59.25
2023-03-26T11:22:11.428Z,63.06
2023-03-26T11:25:17.157Z,61.06
2023-03-26T11:28:09.422Z,56.69
2023-03-26T11:31:05.244Z,55.92
2023-03-26T11:33:37.246Z,53.72
2023-03-26T11:36:12.048Z,53.71
2023-03-26T11:38:43.681Z,50.60
2023-03-26T11:41:24.030Z,47.45
2023-03-26T11:43:58.972Z,50.31
2023-03-26T11:46:31.908Z,51.18
2023-03-26T11:49:06.729Z,50.02
2023-03-26T11:51:36.756Z,49.50
2023-03-26T11:54:07.886Z,45.80
2023-03-26T11:56:35.923Z,43.29
2023-03-26T11:59:20.559Z,39.67
2023-03-26T12:02:24.756Z,39.11
2023-03-26T12:05:02.800Z,38.19
2023-03-26T12:07:32.667Z,36.51
2023-03-26T12:10:18.578Z,36.05
2023-03-26T12:12:47.976Z,36.12
2023-03-26T12:15:20.858Z,36.48
2023-03-26T12:17:53.503Z,36.73
2023-03-26T12:20:27.112Z,34.38
2023-03-26T12:22:59.082Z,34.52
2023-03-26T12:25:33.763Z,34.44
2023-03-26T12:28:03.026Z,35.54
2023-03-26T12:30:34.494Z,35.01
2023-03-26T12:33:26.143Z,35.41
2023-03-26T12:35:57.891Z,35.53
2023-03-26T12:38:35.851Z,36.20
2023-03-26T12:43:53.486Z,37.64
2023-03-26T12:44:53.798Z,37.75
2023-03-26T12:47:57.980Z,38.00
2023-03-26T12:50:17.167Z,38.55
2023-03-26T12:52:54.005Z,38.07
2023-03-26T12:55:42.274Z,37.32
2023-03-26T12:58:19.850Z,38.31
2023-03-26T13:01:16.041Z,38.39
2023-03-26T13:04:03.399Z,39.13
2023-03-26T13:07:06.430Z,37.76
2023-03-26T13:09:55.971Z,37.19
2023-03-26T13:12:55.414Z,36.53
2023-03-26T13:15:28.872Z,35.99
2023-03-26T13:18:01.044Z,36.64
2023-03-26T13:20:43.275Z,38.27
2023-03-26T13:23:26.722Z,40.12
2023-03-26T13:26:00.145Z,39.04
2023-03-26T13:29:25.759Z,38.81
2023-03-26T13:32:14.692Z,38.74
2023-03-26T13:35:14.115Z,38.34
2023-03-26T13:37:50.944Z,37.42
2023-03-26T13:40:29.755Z,36.29
2023-03-26T13:43:34.445Z,36.63
2023-03-26T13:46:14.088Z,35.07
2023-03-26T13:48:59.792Z,36.22
2023-03-26T13:51:48.246Z,36.74
2023-03-26T13:54:29.797Z,36.96
2023-03-26T13:57:07.519Z,35.88
2023-03-26T13:59:53.898Z,35.21
2023-03-26T14:02:25.708Z,36.60
2023-03-26T14:05:02.085Z,36.37
2023-03-26T14:07:43.174Z,35.75
2023-03-26T14:10:16.771Z,35.78
2023-03-26T14:12:51.348Z,34.69
2023-03-26T14:15:21.632Z,35.35
2023-03-26T14:18:27.334Z,34.83
2023-03-26T14:21:17.121Z,35.58
2023-03-26T14:23:56.420Z,35.93
2023-03-26T14:26:29.924Z,35.98
2023-03-26T14:28:56.902Z,36.25
2023-03-26T14:31:44.594Z,34.80
2023-03-26T14:34:34.655Z,33.61
2023-03-26T14:37:18.516Z,33.14
2023-03-26T14:40:16.738Z,32.84
2023-03-26T14:42:58.901Z,33.36
2023-03-26T14:46:03.968Z,32.97
2023-03-26T14:48:37.293Z,33.32
2023-03-26T14:51:16.771Z,32.87
2023-03-26T14:53:49.615Z,33.91
2023-03-26T14:56:47.032Z,33.41
2023-03-26T14:59:56.229Z,33.61
2023-03-26T15:02:55.826Z,33.87
2023-03-26T15:05:48.046Z,34.05
2023-03-26T15:08:34.450Z,34.03
2023-03-26T15:11:26.894Z,34.65
2023-03-26T15:14:03.333Z,35.00
2023-03-26T15:16:49.271Z,34.51
2023-03-26T15:19:46.972Z,34.37
2023-03-26T15:22:13.942Z,33.99
2023-03-26T15:24:59.566Z,34.33
2023-03-26T15:27:29.652Z,34.46
2023-03-26T15:30:16.024Z,34.77
2023-03-26T15:32:49.436Z,34.83
2023-03-26T15:35:41.605Z,35.20
2023-03-26T15:38:42.838Z,36.28
2023-03-26T15:41:44.435Z,36.22
2023-03-26T15:44:33.022Z,36.37
2023-03-26T15:47:27.383Z,36.58
2023-03-26T15:50:11.730Z,37.46
2023-03-26T15:53:03.568Z,38.28
2023-03-26T15:55:43.781Z,38.99
2023-03-26T15:58:27.278Z,38.03
2023-03-26T16:01:06.234Z,38.18
2023-03-26T16:03:48.093Z,38.23
2023-03-26T16:06:21.865Z,38.95
2023-03-26T16:09:07.902Z,39.32
2023-03-26T16:11:50.394Z,39.25
2023-03-26T16:14:36.119Z,39.74
2023-03-26T16:17:06.489Z,40.36
2023-03-26T16:19:50.271Z,40.69
2023-03-26T16:22:35.720Z,40.96
2023-03-26T16:25:29.594Z,41.47
2023-03-26T16:28:34.044Z,41.87
2023-03-26T16:31:36.508Z,42.29
2023-03-26T16:34:09.003Z,43.03
2023-03-26T16:36:39.071Z,43.38
2023-03-26T16:39:06.212Z,44.09
2023-03-26T16:41:51.296Z,44.43
2023-03-26T16:44:43.537Z,45.13
2023-03-26T16:47:42.318Z,45.86
2023-03-26T16:50:16.191Z,46.31
2023-03-26T16:52:54.964Z,46.46
2023-03-26T16:55:37.536Z,47.32
2023-03-26T16:59:00.375Z,47.74
2023-03-26T17:01:52.374Z,48.39
2023-03-26T17:04:24.865Z,48.63
2023-03-26T17:07:01.562Z,49.04
2023-03-26T17:09:42.660Z,49.18
2023-03-26T17:12:47.327Z,49.45
2023-03-26T17:15:45.096Z,49.38
2023-03-26T17:18:27.570Z,49.90
2023-03-26T17:21:01.088Z,50.35
2023-03-26T17:23:49.470Z,50.53
2023-03-26T17:27:01.676Z,50.59
2023-03-26T17:29:45.143Z,51.58
2023-03-26T17:32:15.140Z,51.55
2023-03-26T17:34:55.446Z,51.49
2023-03-26T17:37:22.816Z,51.77
2023-03-26T17:39:50.033Z,52.14
2023-03-26T17:42:19.002Z,52.32
2023-03-26T17:44:49.907Z,52.34
2023-03-26T17:47:59.215Z,52.63
2023-03-26T17:50:32.434Z,53.14
2023-03-26T17:53:06.131Z,53.14
2023-03-26T17:55:38.278Z,53.44
2023-03-26T17:58:58.702Z,53.50
2023-03-26T18:01:41.480Z,53.49
2023-03-26T18:04:19.793Z,53.62
2023-03-26T18:07:01.983Z,53.67
2023-03-26T18:09:53.158Z,54.00
2023-03-26T18:12:46.688Z,54.26
2023-03-26T18:15:32.855Z,54.79
2023-03-26T18:18:07.684Z,54.83
2023-03-26T18:20:38.574Z,55.21
2023-03-26T18:23:22.165Z,54.93
2023-03-26T18:26:15.480Z,55.33
2023-03-26T18:28:54.733Z,55.53
2023-03-26T18:31:26.812Z,55.67
2023-03-26T18:34:06.688Z,55.83
2023-03-26T18:36:34.889Z,55.80
2023-03-26T18:39:04.277Z,55.65
2023-03-26T18:41:37.258Z,55.67
2023-03-26T18:44:07.988Z,55.70
2023-03-26T18:46:35.678Z,55.81
2023-03-26T18:49:03.912Z,56.25
2023-03-26T18:51:32.180Z,56.20
2023-03-26T18:54:03.874Z,55.77
2023-03-26T18:56:43.342Z,55.86
2023-03-26T18:59:33.875Z,55.51
2023-03-26T19:02:13.960Z,55.56
2023-03-26T19:04:46.679Z,55.23
2023-03-26T19:07:18.102Z,55.14
2023-03-26T19:09:45.426Z,55.20
2023-03-26T19:12:31.089Z,55.73
2023-03-26T19:15:09.944Z,56.12
2023-03-26T19:17:42.376Z,55.63
2023-03-26T19:20:19.444Z,54.96
2023-03-26T19:22:48.248Z,54.86
2023-03-26T19:25:55.458Z,55.32
2023-03-26T19:28:24.052Z,55.60
2023-03-26T19:30:57.964Z,54.93
2023-03-26T19:33:34.321Z,54.41
2023-03-26T19:36:24.155Z,54.17
2023-03-26T19:39:05.038Z,53.68
2023-03-26T19:41:36.494Z,53.78
2023-03-26T19:44:18.220Z,53.45
2023-03-26T19:46:53.666Z,53.24
2023-03-26T19:49:42.468Z,53.78
2023-03-26T19:52:15.125Z,53.54
2023-03-26T19:55:15.376Z,53.46
2023-03-26T19:57:43.168Z,53.97
2023-03-26T20:00:15.234Z,53.56
2023-03-26T20:02:46.226Z,52.78
2023-03-26T20:05:28.927Z,53.26
2023-03-26T20:07:59.659Z,53.49
2023-03-26T20:10:28.029Z,53.75
2023-03-26T20:12:55.092Z,53.75
2023-03-26T20:15:24.715Z,54.13
2023-03-26T20:17:55.521Z,54.39
2023-03-26T20:20:24.766Z,55.00
2023-03-26T20:22:53.919Z,53.97
2023-03-26T20:25:26.781Z,54.64
2023-03-26T20:27:56.642Z,54.88
2023-03-26T20:30:37.042Z,54.67
2023-03-26T20:33:12.365Z,55.20
2023-03-26T20:35:40.886Z,55.14
2023-03-26T20:38:09.713Z,55.77
2023-03-26T20:40:38.556Z,55.81
2023-03-26T20:43:11.741Z,55.76
2023-03-26T20:45:39.538Z,56.19
2023-03-26T20:48:08.510Z,56.42
2023-03-26T20:50:41.565Z,56.48
2023-03-26T20:53:20.356Z,57.38
2023-03-26T20:55:49.252Z,57.58
2023-03-26T20:58:32.056Z,57.51
2023-03-26T21:01:01.500Z,58.15
2023-03-26T21:03:29.027Z,57.97
2023-03-26T21:06:01.366Z,58.24
2023-03-26T21:08:34.859Z,58.20
2023-03-26T21:11:04.788Z,58.98
2023-03-26T21:13:45.057Z,58.67
2023-03-26T21:16:13.311Z,59.07
2023-03-26T21:18:41.880Z,59.99
2023-03-26T21:22:01.664Z,60.19
2023-03-26T21:25:18.606Z,64.29
2023-03-26T21:28:06.140Z,69.53
2023-03-26T21:30:34.841Z,75.19
2023-03-26T21:33:02.342Z,77.48
2023-03-26T21:35:29.883Z,79.29
2023-03-26T21:37:57.768Z,80.37
2023-03-26T21:40:24.935Z,81.60
2023-03-26T21:42:54.275Z,83.05
2023-03-26T21:45:22.517Z,85.48
2023-03-26T21:47:50.311Z,84.71
2023-03-26T21:50:21.725Z,84.45
2023-03-26T21:52:51.362Z,85.44
2023-03-26T21:55:21.380Z,86.45
2023-03-26T21:58:12.552Z,86.99
2023-03-26T22:00:52.015Z,88.34
2023-03-26T22:03:29.414Z,90.07
2023-03-26T22:06:38.091Z,91.36
2023-03-26T22:09:05.762Z,93.86
2023-03-26T22:11:32.920Z,95.80
2023-03-26T22:14:01.565Z,98.49
2023-03-26T22:16:29.119Z,100.00
2023-03-26T22:18:56.505Z,100.00
2023-03-26T22:21:23.684Z,100.00
2023-03-26T22:23:54.697Z,100.00
2023-03-26T22:26:23.469Z,100.00
2023-03-26T22:28:51.103Z,100.00
2023-03-26T22:31:18.402Z,100.00
2023-03-26T22:33:46.070Z,100.00
2023-03-26T22:36:22.770Z,100.00
2023-03-26T22:38:54.249Z,100.00
2023-03-26T22:41:22.744Z,100.00
2023-03-26T22:43:52.148Z,100.00
2023-03-26T22:46:19.916Z,100.00
2023-03-26T22:48:51.144Z,100.00
2023-03-26T22:51:18.918Z,100.00
2023-03-26T22:53:46.086Z,100.00
2023-03-26T22:56:15.334Z,100.00
2023-03-26T22:58:42.401Z,100.00
2023-03-26T23:01:09.448Z,100.00
2023-03-26T23:03:37.271Z,100.00
2023-03-26T23:06:07.851Z,100.00
2023-03-26T23:08:36.294Z,100.00
2023-03-26T23:11:24.785Z,100.00
2023-03-26T23:13:52.070Z,100.00
2023-03-26T23:16:21.517Z,100.00
2023-03-26T23:18:48.939Z,100.00
2023-03-26T23:21:19.563Z,100.00
2023-03-26T23:23:48.192Z,100.00
2023-03-26T23:26:15.424Z,100.00
2023-03-26T23:28:43.275Z,100.00
2023-03-26T23:31:15.006Z,100.00
2023-03-26T23:33:51.412Z,100.00
2023-03-26T23:36:21.217Z,100.00
2023-03-26T23:38:48.920Z,100.00
2023-03-26T23:41:22.044Z,100.00
2023-03-26T23:43:54.596Z,100.00
2023-03-26T23:46:25.455Z,100.00
2023-03-26T23:48:53.445Z,100.00
2023-03-26T23:51:21.631Z,100.00
2023-03-26T23:53:49.444Z,100.00
2023-03-26T23:56:17.195Z,100.00
2023-03-26T23:58:44.562Z,100.00
